createdAt,value
2022-08-23T00:01:18.660Z,101313.47
2022-08-23T00:03:48.632Z,101316.22
2022-08-23T00:06:16.578Z,101314.84
2022-08-23T00:08:48.642Z,101312.88
2022-08-23T00:11:27.266Z,101308.03
2022-08-23T00:13:56.212Z,101301.81
2022-08-23T00:16:23.707Z,101305.78
2022-08-23T00:18:51.520Z,101307.63
2022-08-23T00:21:19.168Z,101302.00
2022-08-23T00:23:46.728Z,101302.66
2022-08-23T00:26:14.699Z,101301.63
2022-08-23T00:28:42.174Z,101301.06
2022-08-23T00:31:10.999Z,101300.47
2022-08-23T00:33:38.432Z,101301.75
2022-08-23T00:36:05.848Z,101302.56
2022-08-23T00:38:35.136Z,101295.63
2022-08-23T00:41:03.607Z,101297.66
2022-08-23T00:43:50.049Z,101298.13
2022-08-23T00:46:49.027Z,101290.38
2022-08-23T00:49:17.531Z,101296.72
2022-08-23T00:51:52.287Z,101296.34
2022-08-23T00:54:21.003Z,101297.16
2022-08-23T00:56:48.822Z,101296.34
2022-08-23T00:59:16.311Z,101294.19
2022-08-23T01:01:45.138Z,101294.97
2022-08-23T01:04:13.788Z,101298.88
2022-08-23T01:06:44.897Z,101300.50
2022-08-23T01:09:13.966Z,101295.44
2022-08-23T01:11:43.568Z,101295.44
2022-08-23T01:14:13.273Z,101268.44
2022-08-23T01:16:45.523Z,101303.59
2022-08-23T01:19:18.774Z,101296.22
2022-08-23T01:21:50.091Z,101296.81
2022-08-23T01:24:59.833Z,101290.94
2022-08-23T01:27:08.862Z,101291.97
2022-08-23T01:29:36.359Z,101296.22
2022-08-23T01:32:03.989Z,101300.94
2022-08-23T01:34:35.141Z,101303.59
2022-08-23T01:37:05.582Z,101300.34
2022-08-23T01:39:34.416Z,101301.59
2022-08-23T01:42:01.794Z,101294.94
2022-08-23T01:44:35.591Z,101311.03
2022-08-23T01:47:03.418Z,101308.84
2022-08-23T01:49:31.162Z,101310.66
2022-08-23T01:51:58.561Z,101305.00
2022-08-23T01:54:26.006Z,101298.91
2022-08-23T01:56:54.762Z,101295.66
2022-08-23T01:59:22.632Z,101297.53
2022-08-23T02:01:50.067Z,101301.44
2022-08-23T02:04:17.679Z,101302.69
2022-08-23T02:06:45.161Z,101307.59
2022-08-23T02:09:17.910Z,101308.03
2022-08-23T02:11:45.613Z,101311.75
2022-08-23T02:14:15.505Z,101306.06
2022-08-23T02:16:58.049Z,101301.59
2022-08-23T02:19:32.193Z,101304.66
2022-08-23T02:21:59.685Z,101289.81
2022-08-23T02:24:27.563Z,101292.69
2022-08-23T02:26:56.922Z,101298.41
2022-08-23T02:29:28.995Z,101301.09
2022-08-23T02:31:56.872Z,101299.16
2022-08-23T02:34:25.028Z,101309.94
2022-08-23T02:36:54.877Z,101312.19
2022-08-23T02:39:22.376Z,101304.38
2022-08-23T02:41:50.168Z,101314.22
2022-08-23T02:44:18.452Z,101318.69
2022-08-23T02:46:47.433Z,101322.03
2022-08-23T02:49:15.387Z,101315.25
2022-08-23T02:51:42.809Z,101320.38
2022-08-23T02:54:10.642Z,101324.44
2022-08-23T02:56:38.497Z,101328.34
2022-08-23T02:59:06.812Z,101329.53
2022-08-23T03:01:35.307Z,101329.59
2022-08-23T03:04:05.154Z,101332.75
2022-08-23T03:06:32.716Z,101334.16
2022-08-23T03:09:00.142Z,101329.56
2022-08-23T03:11:27.866Z,101324.72
2022-08-23T03:13:56.247Z,101338.09
2022-08-23T03:16:23.831Z,101328.78
2022-08-23T03:18:51.756Z,101340.91
2022-08-23T03:21:21.237Z,101337.72
2022-08-23T03:23:49.623Z,101342.16
2022-08-23T03:26:17.120Z,101340.00
2022-08-23T03:28:45.580Z,101337.50
2022-08-23T03:31:13.766Z,101336.69
2022-08-23T03:33:41.590Z,101330.72
2022-08-23T03:36:10.399Z,101336.25
2022-08-23T03:38:39.754Z,101327.84
2022-08-23T03:41:07.330Z,101335.78
2022-08-23T03:43:35.235Z,101343.50
2022-08-23T03:46:02.752Z,101339.84
2022-08-23T03:48:30.263Z,101333.31
2022-08-23T03:50:57.766Z,101330.88
2022-08-23T03:53:25.310Z,101335.50
2022-08-23T03:55:55.974Z,101340.59
2022-08-23T03:58:23.515Z,101345.88
2022-08-23T04:00:50.956Z,101341.59
2022-08-23T04:03:18.406Z,101346.66
2022-08-23T04:05:46.820Z,101342.16
2022-08-23T04:08:14.838Z,101344.81
2022-08-23T04:10:47.022Z,101330.00
2022-08-23T04:13:15.785Z,101338.72
2022-08-23T04:15:43.686Z,101337.47
2022-08-23T04:18:11.487Z,101345.19
2022-08-23T04:20:39.116Z,101345.41
2022-08-23T04:23:06.558Z,101348.06
2022-08-23T04:25:35.722Z,101350.47
2022-08-23T04:28:03.874Z,101355.56
2022-08-23T04:30:33.219Z,101353.13
2022-08-23T04:33:01.511Z,101357.19
2022-08-23T04:35:29.826Z,101311.25
2022-08-23T04:37:57.293Z,101355.34
2022-08-23T04:40:42.553Z,101355.94
2022-08-23T04:43:10.006Z,101360.63
2022-08-23T04:45:40.009Z,101361.03
2022-08-23T04:48:11.670Z,101359.38
2022-08-23T04:50:39.446Z,101361.59
2022-08-23T04:53:06.983Z,101317.00
2022-08-23T04:55:36.449Z,101358.16
2022-08-23T04:58:04.103Z,101361.84
2022-08-23T05:00:31.744Z,101365.31
2022-08-23T05:03:00.584Z,101362.19
2022-08-23T05:05:28.362Z,101365.19
2022-08-23T05:07:55.859Z,101353.78
2022-08-23T05:10:23.505Z,101360.34
2022-08-23T05:12:50.929Z,101360.13
2022-08-23T05:15:18.583Z,101371.97
2022-08-23T05:17:46.005Z,101374.16
2022-08-23T05:20:14.803Z,101365.19
2022-08-23T05:22:42.750Z,101371.09
2022-08-23T05:25:10.383Z,101377.41
2022-08-23T05:27:37.823Z,101366.59
2022-08-23T05:30:05.888Z,101376.50
2022-08-23T05:32:33.820Z,101374.22
2022-08-23T05:35:01.680Z,101369.13
2022-08-23T05:37:30.523Z,101373.28
2022-08-23T05:39:58.003Z,101380.91
2022-08-23T05:42:25.600Z,101380.91
2022-08-23T05:44:53.164Z,101375.88
2022-08-23T05:47:24.606Z,101378.66
2022-08-23T05:49:52.865Z,101380.63
2022-08-23T05:52:20.579Z,101385.25
2022-08-23T05:54:49.411Z,101384.06
2022-08-23T05:57:16.894Z,101383.78
2022-08-23T05:59:44.373Z,101381.44
2022-08-23T06:02:11.795Z,101386.41
2022-08-23T06:04:39.270Z,101387.25
2022-08-23T06:07:06.978Z,101394.16
2022-08-23T06:09:34.472Z,101385.72
2022-08-23T06:12:03.704Z,101395.44
2022-08-23T06:14:31.287Z,101395.78
2022-08-23T06:16:58.735Z,101400.53
2022-08-23T06:19:26.205Z,101394.34
2022-08-23T06:21:56.395Z,101398.75
2022-08-23T06:24:24.056Z,101393.56
2022-08-23T06:26:52.041Z,101397.00
2022-08-23T06:29:21.575Z,101398.28
2022-08-23T06:31:50.318Z,101392.75
2022-08-23T06:34:21.137Z,101389.06
2022-08-23T06:36:51.694Z,101386.25
2022-08-23T06:39:20.098Z,101392.72
2022-08-23T06:41:48.990Z,101393.44
2022-08-23T06:44:16.633Z,101394.38
2022-08-23T06:46:46.590Z,101383.53
2022-08-23T06:49:14.166Z,101392.47
2022-08-23T06:51:43.342Z,101390.09
2022-08-23T06:54:12.157Z,101391.31
2022-08-23T06:56:40.484Z,101391.69
2022-08-23T06:59:08.071Z,101394.44
2022-08-23T07:01:46.576Z,101395.34
2022-08-23T07:04:17.464Z,101391.88
2022-08-23T07:06:45.011Z,101398.19
2022-08-23T07:09:12.626Z,101392.84
2022-08-23T07:11:40.090Z,101406.78
2022-08-23T07:14:10.363Z,101389.66
2022-08-23T07:16:39.143Z,101399.63
2022-08-23T07:19:06.653Z,101406.19
2022-08-23T07:21:35.697Z,101410.00
2022-08-23T07:24:03.354Z,101406.38
2022-08-23T07:26:31.638Z,101411.66
2022-08-23T07:28:59.126Z,101416.59
2022-08-23T07:31:28.390Z,101418.75
2022-08-23T07:33:58.876Z,101421.44
2022-08-23T07:36:27.936Z,101417.69
2022-08-23T07:38:57.660Z,101420.38
2022-08-23T07:41:25.714Z,101432.44
2022-08-23T07:43:53.516Z,101437.47
2022-08-23T07:46:20.995Z,101424.41
2022-08-23T07:48:56.660Z,101430.41
2022-08-23T07:51:24.228Z,101436.13
2022-08-23T07:53:51.936Z,101443.56
2022-08-23T07:56:21.659Z,101440.59
2022-08-23T07:58:50.033Z,101441.41
2022-08-23T08:01:19.174Z,101447.59
2022-08-23T08:03:48.477Z,101438.69
2022-08-23T08:06:17.972Z,101443.16
2022-08-23T08:08:45.928Z,101449.84
2022-08-23T08:11:14.370Z,101449.03
2022-08-23T08:13:44.277Z,101458.38
2022-08-23T08:16:12.561Z,101462.88
2022-08-23T08:18:40.068Z,101465.16
2022-08-23T08:21:07.639Z,101461.28
2022-08-23T08:23:35.198Z,101468.59
2022-08-23T08:26:03.104Z,101464.69
2022-08-23T08:28:31.241Z,101458.06
2022-08-23T08:31:00.058Z,101468.75
2022-08-23T08:33:31.011Z,101458.94
2022-08-23T08:36:00.731Z,101463.34
2022-08-23T08:38:30.751Z,101463.69
2022-08-23T08:41:02.104Z,101465.53
2022-08-23T08:43:35.211Z,101471.19
2022-08-23T08:46:07.876Z,101472.56
2022-08-23T08:48:40.261Z,101473.91
2022-08-23T08:51:18.029Z,101475.50
2022-08-23T08:53:47.564Z,101473.66
2022-08-23T08:56:20.943Z,101477.13
2022-08-23T08:58:50.945Z,101477.13
2022-08-23T09:01:20.458Z,101479.28
2022-08-23T09:03:48.547Z,101479.22
2022-08-23T09:06:24.272Z,101471.47
2022-08-23T09:08:58.582Z,101476.50
2022-08-23T09:11:33.468Z,101486.38
2022-08-23T09:14:13.769Z,101479.66
2022-08-23T09:16:48.930Z,101485.97
2022-08-23T09:19:17.528Z,101482.22
2022-08-23T09:21:46.898Z,101489.69
2022-08-23T09:24:14.441Z,101485.94
2022-08-23T09:26:43.598Z,101487.28
2022-08-23T09:29:17.527Z,101478.44
2022-08-23T09:31:49.433Z,101480.59
2022-08-23T09:34:19.274Z,101480.88
2022-08-23T09:36:47.044Z,101473.84
2022-08-23T09:39:30.617Z,101473.59
2022-08-23T09:41:59.005Z,101466.84
2022-08-23T09:44:37.963Z,101466.84
2022-08-23T09:47:09.085Z,101467.50
2022-08-23T09:49:36.745Z,101456.97
2022-08-23T09:52:12.860Z,101467.06
2022-08-23T09:54:55.833Z,101460.97
2022-08-23T09:57:25.755Z,101473.72
2022-08-23T09:59:55.965Z,101469.72
2022-08-23T10:02:29.633Z,101465.66
2022-08-23T10:04:58.631Z,101462.81
2022-08-23T10:07:28.850Z,101463.38
2022-08-23T10:10:13.776Z,101459.25
2022-08-23T10:12:41.681Z,101464.22
2022-08-23T10:15:09.717Z,101456.38
2022-08-23T10:17:41.963Z,101469.34
2022-08-23T10:20:17.299Z,101457.84
2022-08-23T10:22:46.105Z,101452.38
2022-08-23T10:25:19.193Z,101460.84
2022-08-23T10:28:06.715Z,101454.72
2022-08-23T10:30:38.034Z,101445.72
2022-08-23T10:33:09.433Z,101440.25
2022-08-23T10:35:46.079Z,101445.44
2022-08-23T10:38:40.398Z,101444.75
2022-08-23T10:41:16.826Z,101438.03
2022-08-23T10:43:47.282Z,101430.59
2022-08-23T10:46:14.796Z,101435.00
2022-08-23T10:48:48.930Z,101434.22
2022-08-23T10:51:22.677Z,101438.75
2022-08-23T10:54:00.091Z,101435.03
2022-08-23T10:56:28.130Z,101431.56
2022-08-23T10:59:00.178Z,101438.25
2022-08-23T11:01:30.488Z,101438.16
2022-08-23T11:04:04.095Z,101425.19
2022-08-23T11:06:46.470Z,101433.81
2022-08-23T11:09:31.722Z,101428.91
2022-08-23T11:12:08.346Z,101443.44
2022-08-23T11:14:40.177Z,101434.47
2022-08-23T11:17:09.343Z,101427.50
2022-08-23T11:19:52.412Z,101434.56
2022-08-23T11:22:21.727Z,101439.16
2022-08-23T11:24:51.269Z,101439.25
2022-08-23T11:27:35.642Z,101443.59
2022-08-23T11:30:21.806Z,101442.28
2022-08-23T11:32:49.435Z,101443.56
2022-08-23T11:35:37.812Z,101452.41
2022-08-23T11:38:06.848Z,101446.91
2022-08-23T11:40:52.428Z,101446.44
2022-08-23T11:43:24.800Z,101442.13
2022-08-23T11:45:52.269Z,101448.84
2022-08-23T11:48:22.634Z,101450.47
2022-08-23T11:51:00.586Z,101446.34
2022-08-23T11:53:37.584Z,101445.91
2022-08-23T11:56:15.896Z,101446.97
2022-08-23T11:58:54.145Z,101452.69
2022-08-23T12:01:28.919Z,101452.13
2022-08-23T12:03:58.468Z,101461.84
2022-08-23T12:06:43.413Z,101459.19
2022-08-23T12:09:37.068Z,101457.91
2022-08-23T12:12:11.973Z,101456.13
2022-08-23T12:14:50.680Z,101458.06
2022-08-23T12:17:40.261Z,101459.13
2022-08-23T12:20:16.449Z,101452.34
2022-08-23T12:23:09.041Z,101450.91
2022-08-23T12:25:37.713Z,101457.84
2022-08-23T12:28:11.698Z,101456.91
2022-08-23T12:30:44.376Z,101457.19
2022-08-23T12:33:19.631Z,101451.25
2022-08-23T12:35:49.915Z,101450.31
2022-08-23T12:38:22.594Z,101448.72
2022-08-23T12:40:51.717Z,101451.84
2022-08-23T12:43:24.078Z,101453.78
2022-08-23T12:45:52.949Z,101446.09
2022-08-23T12:48:23.028Z,101451.53
2022-08-23T12:50:53.909Z,101452.41
2022-08-23T12:53:28.851Z,101450.72
2022-08-23T12:56:00.701Z,101448.06
2022-08-23T12:58:33.188Z,101457.53
2022-08-23T13:01:02.909Z,101443.84
2022-08-23T13:03:33.915Z,101452.88
2022-08-23T13:06:03.426Z,101454.25
2022-08-23T13:08:34.778Z,101447.78
2022-08-23T13:11:07.812Z,101447.19
2022-08-23T13:13:37.808Z,101442.19
2022-08-23T13:16:27.117Z,101449.19
2022-08-23T13:18:56.062Z,101451.13
2022-08-23T13:21:29.301Z,101455.38
2022-08-23T13:24:01.669Z,101452.41
2022-08-23T13:26:34.792Z,101448.34
2022-08-23T13:29:03.609Z,101445.03
2022-08-23T13:31:46.587Z,101451.81
2022-08-23T13:34:31.101Z,101445.97
2022-08-23T13:36:59.286Z,101440.78
2022-08-23T13:39:28.429Z,101442.25
2022-08-23T13:41:56.611Z,101435.59
2022-08-23T13:44:24.473Z,101439.28
2022-08-23T13:46:52.023Z,101429.97
2022-08-23T13:49:21.286Z,101425.97
2022-08-23T13:52:33.264Z,101431.66
2022-08-23T13:54:53.264Z,101428.63
2022-08-23T13:57:21.805Z,101421.41
2022-08-23T13:59:50.698Z,101420.19
2022-08-23T14:02:19.474Z,101417.22
2022-08-23T14:04:46.979Z,101407.66
2022-08-23T14:07:15.010Z,101412.00
2022-08-23T14:09:42.934Z,101415.59
2022-08-23T14:12:13.922Z,101426.44
2022-08-23T14:14:41.916Z,101415.47
2022-08-23T14:17:10.329Z,101413.41
2022-08-23T14:22:28.978Z,101426.00
2022-08-23T14:24:56.436Z,101418.06
2022-08-23T14:27:25.268Z,101417.84
2022-08-23T14:29:52.711Z,101416.56
2022-08-23T14:32:20.131Z,101424.88
2022-08-23T14:34:47.564Z,101422.28
2022-08-23T14:38:18.093Z,101421.97
2022-08-23T14:40:02.882Z,101427.56
2022-08-23T14:42:32.297Z,101429.00
2022-08-23T14:44:59.774Z,101426.41
2022-08-23T14:47:27.412Z,101433.09
2022-08-23T14:49:55.198Z,101418.97
2022-08-23T14:52:23.053Z,101418.72
2022-08-23T14:54:50.833Z,101428.88
2022-08-23T14:57:18.511Z,101423.72
2022-08-23T14:59:47.306Z,101425.16
2022-08-23T15:02:23.311Z,101428.41
2022-08-23T15:04:50.769Z,101422.53
2022-08-23T15:07:19.351Z,101422.25
2022-08-23T15:09:47.200Z,101421.91
2022-08-23T15:15:03.586Z,101427.50
2022-08-23T15:17:31.874Z,101427.59
2022-08-23T15:19:59.537Z,101437.78
2022-08-23T15:22:26.989Z,101442.44
2022-08-23T15:24:54.437Z,101439.78
2022-08-23T15:27:22.757Z,101440.91
2022-08-23T15:29:50.166Z,101436.91
2022-08-23T15:32:22.387Z,101441.63
2022-08-23T15:34:50.388Z,101447.22
2022-08-23T15:37:19.110Z,101449.09
2022-08-23T15:39:46.566Z,101448.59
2022-08-23T15:42:20.068Z,101454.34
2022-08-23T15:44:48.167Z,101453.66
2022-08-23T15:47:19.433Z,101451.91
2022-08-23T15:49:48.644Z,101454.66
2022-08-23T15:52:16.272Z,101456.84
2022-08-23T15:54:43.768Z,101453.72
2022-08-23T15:57:15.104Z,101448.09
2022-08-23T15:59:42.676Z,101449.88
2022-08-23T16:02:10.246Z,101442.53
2022-08-23T16:04:37.824Z,101448.72
2022-08-23T16:07:07.246Z,101449.19
2022-08-23T16:09:35.336Z,101434.84
2022-08-23T16:12:02.798Z,101441.22
2022-08-23T16:14:32.307Z,101432.34
2022-08-23T16:17:00.342Z,101433.63
2022-08-23T16:19:28.331Z,101440.38
2022-08-23T16:21:56.020Z,101442.09
2022-08-23T16:24:25.178Z,101442.22
2022-08-23T16:26:53.225Z,101432.22
2022-08-23T16:29:21.256Z,101438.72
2022-08-23T16:31:49.007Z,101432.75
2022-08-23T16:34:18.870Z,101428.59
2022-08-23T16:36:47.445Z,101431.97
2022-08-23T16:39:16.369Z,101436.41
2022-08-23T16:41:45.160Z,101431.31
2022-08-23T16:44:12.622Z,101424.47
2022-08-23T16:46:42.651Z,101434.47
2022-08-23T16:49:10.040Z,101431.47
2022-08-23T16:51:37.572Z,101436.66
2022-08-23T16:54:05.059Z,101427.69
2022-08-23T16:56:33.439Z,101434.81
2022-08-23T16:59:02.805Z,101427.78
2022-08-23T17:01:32.942Z,101429.22
2022-08-23T17:04:00.463Z,101435.03
2022-08-23T17:06:27.927Z,101432.88
2022-08-23T17:08:55.367Z,101438.00
2022-08-23T17:11:22.948Z,101447.44
2022-08-23T17:13:52.882Z,101445.41
2022-08-23T17:16:24.036Z,101453.88
2022-08-23T17:18:56.902Z,101456.38
2022-08-23T17:21:24.871Z,101459.13
2022-08-23T17:23:52.463Z,101458.75
2022-08-23T17:26:19.948Z,101461.94
2022-08-23T17:28:48.195Z,101461.13
2022-08-23T17:31:17.224Z,101461.09
2022-08-23T17:33:46.938Z,101466.38
2022-08-23T17:36:22.550Z,101473.56
2022-08-23T17:38:49.991Z,101475.72
2022-08-23T17:41:17.826Z,101472.56
2022-08-23T17:43:45.324Z,101477.41
2022-08-23T17:46:12.809Z,101486.31
2022-08-23T17:48:40.319Z,101482.38
2022-08-23T17:51:09.073Z,101483.53
2022-08-23T17:53:36.536Z,101481.72
2022-08-23T17:56:06.966Z,101486.31
2022-08-23T17:58:39.189Z,101487.97
2022-08-23T18:01:07.100Z,101492.53
2022-08-23T18:03:34.733Z,101488.28
2022-08-23T18:06:02.333Z,101497.69
2022-08-23T18:08:46.539Z,101508.41
2022-08-23T18:11:14.464Z,101502.53
2022-08-23T18:13:41.865Z,101504.69
2022-08-23T18:16:09.398Z,101507.91
2022-08-23T18:18:37.795Z,101505.25
2022-08-23T18:21:05.909Z,101515.13
2022-08-23T18:23:33.325Z,101518.34
2022-08-23T18:26:06.642Z,101528.00
2022-08-23T18:28:33.244Z,101517.53
2022-08-23T18:31:03.515Z,101528.25
2022-08-23T18:33:32.293Z,101538.38
2022-08-23T18:36:15.492Z,101528.19
2022-08-23T18:38:42.940Z,101536.47
2022-08-23T18:41:12.476Z,101541.03
2022-08-23T18:43:40.139Z,101539.16
2022-08-23T18:46:08.939Z,101546.09
2022-08-23T18:48:36.696Z,101553.03
2022-08-23T18:51:04.452Z,101550.63
2022-08-23T18:53:32.001Z,101551.94
2022-08-23T18:55:59.459Z,101560.22
2022-08-23T18:58:28.843Z,101555.38
2022-08-23T19:00:56.346Z,101562.31
2022-08-23T19:03:24.002Z,101563.59
2022-08-23T19:05:51.977Z,101565.69
2022-08-23T19:08:19.516Z,101565.59
2022-08-23T19:10:47.382Z,101574.97
2022-08-23T19:13:15.304Z,101581.09
2022-08-23T19:15:44.711Z,101574.56
2022-08-23T19:18:12.159Z,101587.06
2022-08-23T19:20:39.711Z,101589.69
2022-08-23T19:23:07.410Z,101587.25
2022-08-23T19:25:38.357Z,101558.22
2022-08-23T19:28:06.026Z,101592.50
2022-08-23T19:30:33.802Z,101597.53
2022-08-23T19:33:02.749Z,101602.31
2022-08-23T19:35:31.273Z,101603.09
2022-08-23T19:37:59.364Z,101603.34
2022-08-23T19:40:27.020Z,101596.91
2022-08-23T19:42:55.343Z,101610.75
2022-08-23T19:45:22.766Z,101605.06
2022-08-23T19:47:50.199Z,101608.22
2022-08-23T19:50:24.177Z,101558.69
2022-08-23T19:52:51.866Z,101609.44
2022-08-23T19:55:19.394Z,101616.38
2022-08-23T19:57:46.824Z,101616.31
2022-08-23T20:00:19.284Z,101611.94
2022-08-23T20:02:47.282Z,101607.88
2022-08-23T20:05:15.459Z,101627.00
2022-08-23T20:07:44.340Z,101630.44
2022-08-23T20:10:12.845Z,101629.81
2022-08-23T20:12:41.627Z,101628.16
2022-08-23T20:15:09.978Z,101633.41
2022-08-23T20:17:37.774Z,101633.84
2022-08-23T20:20:05.892Z,101628.44
2022-08-23T20:22:51.038Z,101637.22
2022-08-23T20:25:20.073Z,101638.19
2022-08-23T20:27:48.376Z,101636.81
2022-08-23T20:30:15.821Z,101634.56
2022-08-23T20:32:44.601Z,101637.38
2022-08-23T20:35:12.578Z,101632.00
2022-08-23T20:37:40.095Z,101630.38
2022-08-23T20:40:10.069Z,101637.22
2022-08-23T20:42:39.197Z,101639.81
2022-08-23T20:45:07.168Z,101637.63
2022-08-23T20:47:35.055Z,101638.84
2022-08-23T20:50:02.575Z,101638.78
2022-08-23T20:52:34.385Z,101638.94
2022-08-23T20:55:02.353Z,101634.91
2022-08-23T20:57:38.311Z,101638.28
2022-08-23T21:00:08.333Z,101641.44
2022-08-23T21:02:36.105Z,101636.28
2022-08-23T21:05:06.333Z,101643.13
2022-08-23T21:07:34.115Z,101642.22
2022-08-23T21:10:01.511Z,101636.59
2022-08-23T21:12:29.014Z,101634.41
2022-08-23T21:14:56.756Z,101634.88
2022-08-23T21:17:25.500Z,101632.69
2022-08-23T21:19:52.973Z,101638.50
2022-08-23T21:22:20.496Z,101637.94
2022-08-23T21:24:47.918Z,101646.72
2022-08-23T21:27:16.351Z,101640.22
2022-08-23T21:29:43.927Z,101638.28
2022-08-23T21:32:11.528Z,101642.47
2022-08-23T21:34:40.324Z,101636.59
2022-08-23T21:37:07.897Z,101636.00
2022-08-23T21:39:35.420Z,101635.66
2022-08-23T21:42:02.828Z,101637.50
2022-08-23T21:44:42.336Z,101639.88
2022-08-23T21:47:09.939Z,101639.28
2022-08-23T21:49:37.514Z,101644.84
2022-08-23T21:52:06.561Z,101644.50
2022-08-23T21:54:34.469Z,101646.03
2022-08-23T21:57:01.962Z,101641.19
2022-08-23T21:59:29.791Z,101643.28
2022-08-23T22:01:57.299Z,101651.25
2022-08-23T22:04:24.814Z,101642.34
2022-08-23T22:06:56.049Z,101644.69
2022-08-23T22:09:31.351Z,101653.16
2022-08-23T22:12:00.173Z,101651.19
2022-08-23T22:14:31.254Z,101643.91
2022-08-23T22:16:59.311Z,101638.84
2022-08-23T22:19:26.826Z,101600.25
2022-08-23T22:21:54.246Z,101637.09
2022-08-23T22:24:25.973Z,101640.81
2022-08-23T22:26:55.665Z,101637.81
2022-08-23T22:29:23.395Z,101633.53
2022-08-23T22:31:51.114Z,101629.50
2022-08-23T22:34:18.623Z,101638.94
2022-08-23T22:36:46.255Z,101638.59
2022-08-23T22:39:20.044Z,101636.19
2022-08-23T22:41:47.533Z,101643.00
2022-08-23T22:44:16.501Z,101642.19
2022-08-23T22:46:44.018Z,101645.78
2022-08-23T22:49:11.498Z,101644.41
2022-08-23T22:51:41.330Z,101643.84
2022-08-23T22:54:10.532Z,101644.88
2022-08-23T22:56:39.067Z,101650.06
2022-08-23T22:59:07.095Z,101639.13
2022-08-23T23:01:36.916Z,101632.72
2022-08-23T23:04:06.668Z,101645.56
2022-08-23T23:06:36.157Z,101638.84
2022-08-23T23:09:04.540Z,101631.03
2022-08-23T23:11:32.033Z,101642.69
2022-08-23T23:13:59.966Z,101634.13
2022-08-23T23:16:28.606Z,101632.72
2022-08-23T23:19:14.902Z,101636.44
2022-08-23T23:21:43.414Z,101642.00
2022-08-23T23:24:11.985Z,101639.78
2022-08-23T23:26:39.688Z,101636.78
2022-08-23T23:29:08.206Z,101646.59
2022-08-23T23:31:35.834Z,101647.03
2022-08-23T23:34:04.744Z,101646.81
2022-08-23T23:36:32.197Z,101651.31
2022-08-23T23:38:59.689Z,101645.19
2022-08-23T23:41:27.108Z,101632.16
2022-08-23T23:43:54.518Z,101645.44
2022-08-23T23:46:22.049Z,101638.97
2022-08-23T23:48:49.905Z,101642.09
2022-08-23T23:51:20.117Z,101652.13
2022-08-23T23:53:47.612Z,101648.03
2022-08-23T23:56:15.754Z,101636.59
2022-08-23T23:58:43.249Z,101642.13
